createdAt,value
2023-04-06T00:01:19.695Z,67.78
2023-04-06T00:03:46.375Z,67.81
2023-04-06T00:06:13.363Z,67.05
2023-04-06T00:08:40.746Z,68.22
2023-04-06T00:11:07.338Z,67.77
2023-04-06T00:13:34.022Z,66.85
2023-04-06T00:16:00.627Z,66.87
2023-04-06T00:18:27.703Z,66.75
2023-04-06T00:20:54.339Z,67.18
2023-04-06T00:23:21.224Z,67.64
2023-04-06T00:25:47.762Z,67.33
2023-04-06T00:28:14.362Z,67.18
2023-04-06T00:30:41.912Z,67.30
2023-04-06T00:33:08.514Z,68.55
2023-04-06T00:35:35.869Z,68.26
2023-04-06T00:38:02.370Z,67.49
2023-04-06T00:40:29.606Z,66.55
2023-04-06T00:42:56.277Z,66.63
2023-04-06T00:45:22.828Z,66.78
2023-04-06T00:47:49.476Z,67.30
2023-04-06T00:50:16.089Z,67.93
2023-04-06T00:52:42.629Z,67.49
2023-04-06T00:55:09.420Z,68.05
2023-04-06T00:57:36.821Z,68.11
2023-04-06T01:00:04.108Z,66.37
2023-04-06T01:02:30.956Z,66.01
2023-04-06T01:04:57.697Z,66.30
2023-04-06T01:07:25.590Z,66.16
2023-04-06T01:09:56.106Z,66.53
2023-04-06T01:12:22.901Z,65.92
2023-04-06T01:14:49.587Z,66.16
2023-04-06T01:17:16.391Z,65.96
2023-04-06T01:19:43.002Z,66.31
2023-04-06T01:22:09.576Z,66.65
2023-04-06T01:24:36.147Z,66.23
2023-04-06T01:27:02.776Z,66.56
2023-04-06T01:29:29.355Z,66.11
2023-04-06T01:31:56.321Z,65.64
2023-04-06T01:34:22.984Z,65.46
2023-04-06T01:36:49.621Z,66.04
2023-04-06T01:39:16.632Z,65.96
2023-04-06T01:41:43.342Z,66.67
2023-04-06T01:44:10.003Z,67.09
2023-04-06T01:46:36.631Z,66.92
2023-04-06T01:49:04.384Z,66.64
2023-04-06T01:51:31.180Z,67.51
2023-04-06T01:53:57.729Z,68.24
2023-04-06T01:56:24.429Z,67.34
2023-04-06T01:58:51.189Z,65.83
2023-04-06T02:01:17.865Z,64.91
2023-04-06T02:03:44.487Z,65.41
2023-04-06T02:06:11.126Z,64.60
2023-04-06T02:08:37.655Z,63.70
2023-04-06T02:11:04.334Z,64.54
2023-04-06T02:13:30.980Z,65.94
2023-04-06T02:15:58.198Z,66.48
2023-04-06T02:18:24.765Z,64.88
2023-04-06T02:20:51.307Z,64.25
2023-04-06T02:23:17.997Z,65.18
2023-04-06T02:25:44.591Z,64.99
2023-04-06T02:28:11.402Z,64.53
2023-04-06T02:30:37.975Z,64.80
2023-04-06T02:33:04.575Z,66.11
2023-04-06T02:35:31.915Z,66.56
2023-04-06T02:37:58.444Z,66.80
2023-04-06T02:40:25.035Z,66.50
2023-04-06T02:42:51.649Z,66.21
2023-04-06T02:45:18.271Z,66.32
2023-04-06T02:47:44.916Z,67.11
2023-04-06T02:50:11.572Z,65.21
2023-04-06T02:52:38.164Z,65.21
2023-04-06T02:55:05.457Z,65.69
2023-04-06T02:57:32.066Z,64.75
2023-04-06T02:59:58.589Z,66.27
2023-04-06T03:02:25.219Z,63.38
2023-04-06T03:04:51.924Z,64.67
2023-04-06T03:07:18.507Z,64.43
2023-04-06T03:09:45.068Z,64.81
2023-04-06T03:12:11.614Z,64.38
2023-04-06T03:14:38.250Z,64.56
2023-04-06T03:17:04.819Z,64.60
2023-04-06T03:19:31.519Z,63.78
2023-04-06T03:21:58.096Z,63.41
2023-04-06T03:24:24.730Z,63.40
2023-04-06T03:26:51.338Z,64.33
2023-04-06T03:29:17.910Z,63.88
2023-04-06T03:31:44.815Z,64.28
2023-04-06T03:34:11.603Z,62.37
2023-04-06T03:36:38.302Z,63.76
2023-04-06T03:39:05.266Z,64.35
2023-04-06T03:41:32.279Z,64.67
2023-04-06T03:43:58.859Z,64.47
2023-04-06T03:46:25.745Z,63.38
2023-04-06T03:48:52.325Z,62.80
2023-04-06T03:51:18.882Z,62.46
2023-04-06T03:53:45.465Z,62.71
2023-04-06T03:56:12.060Z,62.32
2023-04-06T03:58:38.634Z,64.36
2023-04-06T04:01:05.438Z,64.97
2023-04-06T04:03:32.115Z,64.58
2023-04-06T04:05:58.817Z,63.20
2023-04-06T04:08:26.062Z,64.27
2023-04-06T04:10:52.685Z,64.36
2023-04-06T04:13:19.643Z,63.66
2023-04-06T04:15:46.257Z,64.92
2023-04-06T04:18:12.808Z,67.80
2023-04-06T04:20:39.630Z,67.07
2023-04-06T04:23:06.169Z,65.54
2023-04-06T04:25:32.739Z,65.75
2023-04-06T04:27:59.339Z,64.80
2023-04-06T04:30:26.081Z,64.74
2023-04-06T04:32:52.767Z,64.85
2023-04-06T04:35:19.438Z,66.03
2023-04-06T04:37:46.150Z,66.26
2023-04-06T04:40:12.930Z,65.28
2023-04-06T04:42:39.532Z,66.01
2023-04-06T04:45:06.464Z,65.63
2023-04-06T04:47:33.080Z,67.79
2023-04-06T04:49:59.673Z,66.74
2023-04-06T04:52:26.271Z,66.75
2023-04-06T04:54:52.928Z,67.92
2023-04-06T04:57:19.533Z,67.83
2023-04-06T04:59:46.369Z,67.92
2023-04-06T05:02:13.056Z,68.86
2023-04-06T05:04:39.729Z,66.78
2023-04-06T05:07:10.377Z,68.37
2023-04-06T05:09:37.029Z,68.62
2023-04-06T05:12:03.803Z,67.75
2023-04-06T05:14:30.747Z,67.66
2023-04-06T05:16:57.340Z,66.88
2023-04-06T05:19:23.995Z,68.40
2023-04-06T05:21:50.957Z,66.28
2023-04-06T05:24:17.701Z,68.53
2023-04-06T05:26:44.394Z,67.17
2023-04-06T05:29:11.985Z,66.82
2023-04-06T05:31:38.840Z,66.61
2023-04-06T05:34:05.785Z,65.02
2023-04-06T05:36:33.232Z,65.16
2023-04-06T05:39:00.114Z,65.98
2023-04-06T05:41:27.262Z,65.93
2023-04-06T05:43:53.874Z,65.33
2023-04-06T05:46:21.024Z,65.26
2023-04-06T05:48:47.806Z,65.07
2023-04-06T05:51:14.372Z,64.56
2023-04-06T05:53:40.994Z,63.79
2023-04-06T05:56:07.683Z,63.53
2023-04-06T05:58:34.231Z,63.71
2023-04-06T06:01:02.027Z,60.93
2023-04-06T06:03:28.669Z,61.43
2023-04-06T06:05:55.388Z,59.23
2023-04-06T06:08:22.026Z,56.39
2023-04-06T06:10:48.652Z,55.53
2023-04-06T06:13:15.569Z,54.35
2023-04-06T06:15:42.312Z,52.81
2023-04-06T06:18:08.942Z,51.07
2023-04-06T06:20:35.731Z,51.22
2023-04-06T06:23:02.271Z,52.89
2023-04-06T06:25:31.704Z,52.28
2023-04-06T06:27:59.502Z,51.29
2023-04-06T06:30:27.115Z,49.81
2023-04-06T06:32:53.733Z,50.75
2023-04-06T06:35:20.394Z,49.45
2023-04-06T06:37:46.930Z,49.68
2023-04-06T06:40:14.384Z,49.11
2023-04-06T06:42:41.125Z,47.72
2023-04-06T06:45:08.820Z,51.13
2023-04-06T06:47:35.489Z,49.59
2023-04-06T06:50:03.939Z,50.07
2023-04-06T06:52:30.684Z,48.47
2023-04-06T06:54:57.919Z,47.72
2023-04-06T06:57:24.705Z,47.95
2023-04-06T06:59:51.295Z,45.42
2023-04-06T07:02:17.859Z,46.13
2023-04-06T07:04:44.494Z,46.09
2023-04-06T07:07:11.260Z,47.24
2023-04-06T07:09:37.872Z,47.08
2023-04-06T07:12:04.606Z,47.09
2023-04-06T07:14:31.200Z,47.10
2023-04-06T07:16:57.847Z,47.25
2023-04-06T07:19:24.476Z,48.56
2023-04-06T07:21:51.067Z,46.49
2023-04-06T07:24:17.657Z,47.85
2023-04-06T07:26:44.479Z,48.23
2023-04-06T07:29:11.159Z,45.98
2023-04-06T07:31:37.895Z,45.62
2023-04-06T07:34:04.467Z,45.86
2023-04-06T07:36:31.058Z,45.97
2023-04-06T07:38:57.629Z,45.28
2023-04-06T07:41:25.053Z,44.08
2023-04-06T07:43:51.520Z,43.07
2023-04-06T07:46:18.143Z,42.33
2023-04-06T07:48:44.763Z,45.68
2023-04-06T07:51:15.199Z,43.15
2023-04-06T07:53:41.797Z,45.98
2023-04-06T07:56:08.486Z,42.09
2023-04-06T07:58:35.580Z,42.23
2023-04-06T08:01:02.785Z,41.41
2023-04-06T08:03:29.542Z,41.47
2023-04-06T08:05:56.353Z,42.80
2023-04-06T08:08:23.561Z,44.17
2023-04-06T08:10:50.188Z,46.18
2023-04-06T08:13:17.367Z,44.93
2023-04-06T08:15:44.248Z,44.58
2023-04-06T08:18:11.087Z,46.74
2023-04-06T08:20:37.773Z,46.47
2023-04-06T08:23:04.473Z,48.23
2023-04-06T08:25:31.097Z,44.40
2023-04-06T08:27:57.632Z,44.04
2023-04-06T08:30:24.261Z,45.44
2023-04-06T08:32:51.161Z,45.56
2023-04-06T08:35:18.076Z,45.23
2023-04-06T08:37:44.736Z,44.59
2023-04-06T08:40:12.228Z,44.07
2023-04-06T08:42:45.180Z,43.32
2023-04-06T08:45:12.182Z,44.52
2023-04-06T08:47:38.824Z,44.06
2023-04-06T08:50:06.042Z,48.77
2023-04-06T08:52:34.107Z,46.85
2023-04-06T08:55:01.488Z,47.02
2023-04-06T08:57:28.045Z,47.57
2023-04-06T08:59:56.681Z,44.90
2023-04-06T09:02:23.633Z,42.81
2023-04-06T09:04:54.001Z,46.47
2023-04-06T09:07:21.205Z,43.42
2023-04-06T09:09:52.561Z,45.58
2023-04-06T09:12:29.990Z,42.25
2023-04-06T09:14:58.102Z,47.62
2023-04-06T09:17:26.632Z,46.36
2023-04-06T09:19:53.686Z,45.80
2023-04-06T09:22:21.070Z,41.47
2023-04-06T09:24:48.382Z,40.94
2023-04-06T09:27:16.327Z,42.53
2023-04-06T09:29:43.722Z,43.09
2023-04-06T09:32:17.551Z,48.72
2023-04-06T09:34:44.276Z,45.16
2023-04-06T09:37:18.982Z,48.70
2023-04-06T09:39:47.351Z,45.33
2023-04-06T09:42:26.381Z,44.17
2023-04-06T09:44:53.050Z,46.95
2023-04-06T09:47:21.048Z,46.16
2023-04-06T09:49:51.058Z,45.62
2023-04-06T09:52:19.223Z,45.79
2023-04-06T09:54:51.140Z,47.58
2023-04-06T09:57:33.010Z,44.98
2023-04-06T10:00:12.236Z,46.32
2023-04-06T10:03:13.169Z,45.41
2023-04-06T10:05:56.153Z,48.71
2023-04-06T10:08:26.418Z,45.80
2023-04-06T10:10:53.564Z,50.68
2023-04-06T10:13:20.680Z,44.68
2023-04-06T10:15:48.031Z,46.24
2023-04-06T10:18:14.975Z,47.92
2023-04-06T10:21:14.039Z,49.04
2023-04-06T10:23:50.314Z,49.49
2023-04-06T10:26:21.710Z,45.64
2023-04-06T10:28:50.026Z,47.39
2023-04-06T10:31:25.045Z,48.91
2023-04-06T10:33:56.699Z,48.17
2023-04-06T10:36:27.898Z,47.96
2023-04-06T10:39:00.297Z,46.58
2023-04-06T10:41:41.761Z,46.20
2023-04-06T10:44:08.501Z,45.47
2023-04-06T10:46:35.418Z,47.19
2023-04-06T10:49:15.766Z,46.82
2023-04-06T10:51:42.443Z,45.91
2023-04-06T10:54:10.450Z,47.18
2023-04-06T10:56:39.823Z,46.13
2023-04-06T10:59:07.275Z,46.21
2023-04-06T11:01:33.830Z,45.74
2023-04-06T11:04:00.623Z,48.26
2023-04-06T11:06:29.971Z,48.41
2023-04-06T11:08:57.439Z,48.79
2023-04-06T11:11:27.430Z,46.62
2023-04-06T11:13:55.673Z,46.83
2023-04-06T11:16:27.733Z,46.49
2023-04-06T11:18:54.376Z,47.58
2023-04-06T11:21:32.156Z,48.80
2023-04-06T11:24:13.274Z,47.18
2023-04-06T11:26:41.585Z,46.42
2023-04-06T11:29:08.491Z,47.94
2023-04-06T11:31:43.352Z,46.98
2023-04-06T11:34:20.954Z,48.99
2023-04-06T11:36:50.088Z,47.70
2023-04-06T11:39:21.921Z,46.75
2023-04-06T11:41:50.211Z,48.55
2023-04-06T11:44:17.128Z,46.44
2023-04-06T11:46:53.314Z,47.90
2023-04-06T11:49:20.015Z,47.35
2023-04-06T11:51:47.438Z,49.64
2023-04-06T11:54:14.081Z,46.82
2023-04-06T11:56:40.830Z,49.28
2023-04-06T11:59:07.507Z,50.58
2023-04-06T12:04:21.773Z,49.33
2023-04-06T12:06:49.418Z,47.81
2023-04-06T12:09:18.491Z,47.60
2023-04-06T12:11:45.724Z,49.95
2023-04-06T12:14:12.661Z,48.50
2023-04-06T12:16:39.992Z,48.52
2023-04-06T12:19:06.974Z,47.28
2023-04-06T12:21:36.360Z,47.63
2023-04-06T12:24:03.009Z,48.55
2023-04-06T12:26:29.631Z,48.43
2023-04-06T12:28:56.714Z,47.30
2023-04-06T12:31:24.276Z,48.61
2023-04-06T12:33:51.730Z,50.22
2023-04-06T12:36:22.178Z,48.34
2023-04-06T12:38:49.848Z,49.87
2023-04-06T12:41:16.934Z,48.37
2023-04-06T12:43:44.717Z,49.05
2023-04-06T12:46:12.199Z,48.19
2023-04-06T12:48:38.909Z,46.93
2023-04-06T12:51:06.941Z,47.64
2023-04-06T12:53:34.783Z,48.79
2023-04-06T12:56:02.251Z,47.47
2023-04-06T12:58:29.329Z,49.07
2023-04-06T13:00:57.058Z,50.79
2023-04-06T13:03:23.780Z,50.60
2023-04-06T13:05:51.918Z,47.75
2023-04-06T13:08:20.643Z,47.76
2023-04-06T13:10:53.058Z,48.32
2023-04-06T13:13:24.366Z,49.35
2023-04-06T13:15:52.018Z,48.01
2023-04-06T13:18:18.680Z,48.80
2023-04-06T13:20:45.545Z,48.95
2023-04-06T13:23:12.367Z,47.17
2023-04-06T13:25:38.949Z,49.80
2023-04-06T13:28:05.514Z,47.59
2023-04-06T13:30:32.385Z,46.71
2023-04-06T13:32:59.118Z,47.35
2023-04-06T13:35:25.673Z,48.64
2023-04-06T13:37:53.270Z,47.63
2023-04-06T13:40:20.665Z,46.89
2023-04-06T13:42:47.665Z,48.59
2023-04-06T13:45:14.689Z,49.89
2023-04-06T13:47:41.423Z,47.48
2023-04-06T13:50:08.540Z,47.78
2023-04-06T13:52:37.138Z,48.09
2023-04-06T13:55:04.021Z,49.62
2023-04-06T13:57:31.081Z,47.49
2023-04-06T13:59:57.676Z,48.45
2023-04-06T14:02:28.420Z,47.72
2023-04-06T14:04:55.604Z,48.29
2023-04-06T14:07:24.501Z,48.26
2023-04-06T14:09:51.591Z,48.89
2023-04-06T14:12:18.214Z,46.76
2023-04-06T14:14:44.829Z,47.56
2023-04-06T14:17:11.600Z,49.72
2023-04-06T14:19:38.727Z,47.50
2023-04-06T14:22:05.737Z,48.63
2023-04-06T14:24:32.528Z,46.87
2023-04-06T14:26:59.134Z,47.33
2023-04-06T14:29:25.827Z,48.33
2023-04-06T14:31:52.430Z,48.22
2023-04-06T14:34:19.206Z,47.12
2023-04-06T14:36:45.872Z,47.34
2023-04-06T14:39:12.557Z,48.62
2023-04-06T14:41:39.158Z,47.70
2023-04-06T14:44:06.652Z,47.78
2023-04-06T14:46:33.886Z,47.82
2023-04-06T14:49:00.444Z,46.97
2023-04-06T14:51:30.472Z,47.01
2023-04-06T14:53:57.817Z,47.55
2023-04-06T14:56:24.943Z,48.02
2023-04-06T14:58:52.012Z,48.54
2023-04-06T15:01:21.576Z,47.11
2023-04-06T15:03:48.540Z,47.81
2023-04-06T15:06:16.509Z,49.73
2023-04-06T15:08:44.079Z,49.48
2023-04-06T15:11:11.249Z,47.50
2023-04-06T15:13:38.913Z,47.36
2023-04-06T15:16:06.796Z,47.56
2023-04-06T15:18:34.825Z,48.03
2023-04-06T15:21:01.637Z,48.68
2023-04-06T15:23:31.603Z,47.24
2023-04-06T15:25:58.806Z,47.59
2023-04-06T15:28:25.417Z,47.08
2023-04-06T15:30:52.571Z,48.07
2023-04-06T15:33:21.198Z,49.00
2023-04-06T15:35:47.929Z,47.63
2023-04-06T15:38:14.767Z,48.00
2023-04-06T15:40:46.296Z,49.63
2023-04-06T15:43:13.603Z,48.08
2023-04-06T15:45:41.846Z,48.38
2023-04-06T15:48:09.170Z,49.55
2023-04-06T15:50:36.612Z,47.42
2023-04-06T15:53:03.206Z,47.57
2023-04-06T15:55:29.856Z,48.16
2023-04-06T15:57:56.426Z,48.70
2023-04-06T16:00:23.243Z,48.11
2023-04-06T16:02:50.025Z,48.64
2023-04-06T16:05:16.889Z,50.14
2023-04-06T16:07:43.692Z,49.75
2023-04-06T16:10:10.781Z,48.87
2023-04-06T16:12:37.533Z,49.01
2023-04-06T16:15:04.576Z,48.73
2023-04-06T16:17:31.680Z,49.20
2023-04-06T16:19:58.309Z,49.93
2023-04-06T16:22:24.876Z,49.79
2023-04-06T16:24:51.481Z,50.04
2023-04-06T16:27:18.089Z,50.52
2023-04-06T16:29:44.748Z,50.61
2023-04-06T16:32:12.345Z,50.29
2023-04-06T16:34:39.050Z,49.97
2023-04-06T16:37:05.830Z,49.12
2023-04-06T16:39:32.485Z,49.55
2023-04-06T16:41:59.464Z,50.06
2023-04-06T16:44:27.372Z,50.10
2023-04-06T16:46:53.966Z,49.88
2023-04-06T16:49:20.935Z,49.01
2023-04-06T16:51:49.650Z,49.13
2023-04-06T16:54:16.785Z,49.31
2023-04-06T16:56:43.396Z,49.42
2023-04-06T16:59:10.076Z,49.71
2023-04-06T17:01:36.914Z,50.43
2023-04-06T17:04:03.788Z,50.29
2023-04-06T17:06:31.310Z,51.16
2023-04-06T17:08:59.745Z,50.92
2023-04-06T17:11:32.947Z,50.67
2023-04-06T17:14:10.300Z,51.85
2023-04-06T17:16:36.990Z,50.56
2023-04-06T17:19:03.645Z,50.63
2023-04-06T17:21:30.952Z,51.56
2023-04-06T17:23:57.531Z,50.74
2023-04-06T17:26:24.077Z,52.03
2023-04-06T17:28:50.668Z,52.10
2023-04-06T17:31:17.402Z,51.22
2023-04-06T17:33:44.376Z,52.11
2023-04-06T17:36:12.481Z,52.31
2023-04-06T17:38:43.573Z,52.36
2023-04-06T17:41:12.030Z,52.55
2023-04-06T17:43:38.899Z,53.07
2023-04-06T17:46:06.014Z,52.58
2023-04-06T17:48:32.658Z,51.74
2023-04-06T17:50:59.243Z,51.77
2023-04-06T17:53:26.273Z,52.00
2023-04-06T17:55:53.066Z,52.69
2023-04-06T17:58:19.637Z,52.52
2023-04-06T18:00:46.351Z,52.81
2023-04-06T18:03:12.993Z,51.72
2023-04-06T18:05:39.829Z,51.90
2023-04-06T18:08:06.456Z,52.76
2023-04-06T18:10:38.102Z,51.97
2023-04-06T18:13:04.744Z,51.69
2023-04-06T18:15:31.482Z,52.49
2023-04-06T18:17:58.141Z,52.44
2023-04-06T18:20:24.766Z,52.18
2023-04-06T18:22:51.530Z,52.76
2023-04-06T18:25:18.813Z,52.50
2023-04-06T18:27:45.524Z,53.28
2023-04-06T18:30:14.114Z,52.09
2023-04-06T18:32:40.873Z,52.83
2023-04-06T18:35:09.336Z,52.23
2023-04-06T18:37:36.430Z,52.68
2023-04-06T18:40:04.165Z,53.05
2023-04-06T18:42:30.727Z,52.75
2023-04-06T18:44:57.304Z,53.09
2023-04-06T18:47:23.878Z,53.95
2023-04-06T18:49:50.469Z,53.72
2023-04-06T18:52:17.017Z,53.15
2023-04-06T18:54:43.638Z,54.09
2023-04-06T18:57:11.317Z,52.56
2023-04-06T18:59:37.842Z,52.24
2023-04-06T19:02:04.516Z,52.41
2023-04-06T19:04:31.365Z,53.30
2023-04-06T19:06:58.097Z,54.17
2023-04-06T19:09:24.735Z,53.40
2023-04-06T19:11:51.473Z,53.15
2023-04-06T19:14:18.147Z,53.32
2023-04-06T19:16:52.213Z,52.79
2023-04-06T19:19:19.696Z,53.35
2023-04-06T19:21:46.740Z,53.68
2023-04-06T19:24:13.456Z,54.03
2023-04-06T19:26:40.095Z,53.90
2023-04-06T19:29:06.697Z,54.02
2023-04-06T19:31:33.309Z,52.86
2023-04-06T19:33:59.924Z,53.26
2023-04-06T19:36:26.647Z,53.37
2023-04-06T19:38:53.306Z,54.87
2023-04-06T19:41:20.046Z,54.88
2023-04-06T19:43:46.620Z,54.01
2023-04-06T19:46:15.472Z,54.90
2023-04-06T19:48:42.369Z,54.35
2023-04-06T19:51:09.085Z,54.63
2023-04-06T19:53:36.666Z,54.93
2023-04-06T19:56:03.305Z,55.23
2023-04-06T19:58:29.945Z,54.05
2023-04-06T20:00:56.589Z,54.34
2023-04-06T20:03:23.301Z,54.31
2023-04-06T20:05:49.976Z,53.82
2023-04-06T20:08:16.549Z,54.34
2023-04-06T20:10:43.176Z,53.92
2023-04-06T20:13:09.842Z,53.80
2023-04-06T20:15:36.458Z,53.71
2023-04-06T20:18:03.121Z,53.97
2023-04-06T20:20:29.846Z,53.89
2023-04-06T20:22:56.486Z,54.25
2023-04-06T20:25:23.283Z,53.76
2023-04-06T20:27:53.115Z,54.01
2023-04-06T20:30:19.756Z,54.42
2023-04-06T20:32:46.372Z,53.83
2023-04-06T20:35:13.073Z,53.94
2023-04-06T20:37:39.667Z,53.24
2023-04-06T20:40:06.872Z,53.53
2023-04-06T20:42:34.418Z,53.57
2023-04-06T20:45:02.518Z,53.11
2023-04-06T20:47:29.432Z,53.33
2023-04-06T20:49:56.049Z,52.93
2023-04-06T20:52:23.037Z,53.14
2023-04-06T20:54:50.734Z,53.22
2023-04-06T20:57:17.313Z,53.28
2023-04-06T20:59:45.186Z,53.21
2023-04-06T21:02:12.055Z,52.93
2023-04-06T21:04:38.897Z,52.36
2023-04-06T21:07:06.418Z,52.94
2023-04-06T21:09:40.062Z,52.99
2023-04-06T21:12:07.142Z,52.56
2023-04-06T21:14:34.171Z,51.58
2023-04-06T21:17:00.880Z,53.42
2023-04-06T21:19:30.023Z,52.77
2023-04-06T21:21:56.710Z,51.73
2023-04-06T21:24:23.378Z,52.09
2023-04-06T21:26:50.051Z,52.94
2023-04-06T21:29:16.698Z,53.03
2023-04-06T21:31:43.377Z,52.95
2023-04-06T21:34:14.296Z,53.45
2023-04-06T21:36:41.738Z,52.05
2023-04-06T21:39:08.904Z,52.62
2023-04-06T21:41:35.711Z,53.87
2023-04-06T21:44:02.420Z,53.49
2023-04-06T21:46:29.082Z,53.72
2023-04-06T21:48:55.932Z,53.71
2023-04-06T21:51:23.498Z,53.52
2023-04-06T21:53:51.676Z,53.16
2023-04-06T21:56:23.075Z,52.91
2023-04-06T21:58:51.315Z,52.93
2023-04-06T22:01:18.813Z,52.10
2023-04-06T22:03:46.568Z,52.18
2023-04-06T22:06:13.475Z,52.43
2023-04-06T22:08:40.124Z,51.65
2023-04-06T22:11:09.309Z,51.39
2023-04-06T22:13:36.478Z,51.15
2023-04-06T22:16:04.052Z,50.88
2023-04-06T22:18:31.233Z,51.15
2023-04-06T22:20:58.027Z,51.48
2023-04-06T22:23:24.861Z,51.14
2023-04-06T22:25:52.491Z,50.53
2023-04-06T22:28:19.075Z,50.81
2023-04-06T22:30:45.742Z,51.13
2023-04-06T22:33:12.418Z,50.97
2023-04-06T22:35:39.076Z,51.16
2023-04-06T22:38:05.711Z,51.53
2023-04-06T22:40:32.343Z,51.85
2023-04-06T22:42:58.921Z,52.16
2023-04-06T22:45:26.418Z,51.54
2023-04-06T22:47:53.245Z,51.48
2023-04-06T22:50:19.981Z,51.54
2023-04-06T22:52:46.517Z,51.70
2023-04-06T22:55:13.145Z,51.50
2023-04-06T22:57:39.707Z,51.38
2023-04-06T23:00:06.952Z,51.65
2023-04-06T23:02:33.699Z,51.71
2023-04-06T23:05:00.782Z,51.39
2023-04-06T23:07:27.314Z,51.81
2023-04-06T23:09:53.816Z,52.05
2023-04-06T23:12:20.380Z,51.87
2023-04-06T23:14:46.961Z,51.99
2023-04-06T23:17:15.081Z,52.74
2023-04-06T23:19:41.832Z,53.04
2023-04-06T23:22:08.514Z,52.59
2023-04-06T23:24:35.482Z,53.01
2023-04-06T23:27:02.066Z,54.91
2023-04-06T23:29:28.629Z,54.14
2023-04-06T23:31:55.459Z,53.44
2023-04-06T23:34:22.057Z,53.56
2023-04-06T23:36:48.889Z,53.68
2023-04-06T23:39:15.775Z,53.32
2023-04-06T23:41:43.153Z,54.45
2023-04-06T23:44:09.665Z,54.82
2023-04-06T23:46:36.390Z,54.97
2023-04-06T23:49:03.060Z,55.90
2023-04-06T23:51:29.602Z,55.81
2023-04-06T23:53:56.338Z,58.25
2023-04-06T23:56:22.953Z,58.22
2023-04-06T23:58:49.565Z,57.97
